createdAt,value
2022-12-08T00:00:08.626Z,3.53
2022-12-08T00:02:44.524Z,3.53
2022-12-08T00:05:32.585Z,3.54
2022-12-08T00:08:18.675Z,3.54
2022-12-08T00:10:49.667Z,3.51
2022-12-08T00:13:18.878Z,3.52
2022-12-08T00:15:47.772Z,3.51
2022-12-08T00:18:16.597Z,3.55
2022-12-08T00:20:46.326Z,3.55
2022-12-08T00:23:15.549Z,3.55
2022-12-08T00:25:43.912Z,3.53
2022-12-08T00:28:13.221Z,3.53
2022-12-08T00:30:41.825Z,3.46
2022-12-08T00:33:10.713Z,3.51
2022-12-08T00:35:43.090Z,3.54
2022-12-08T00:38:13.246Z,3.56
2022-12-08T00:40:45.900Z,3.56
2022-12-08T00:43:15.078Z,3.59
2022-12-08T00:45:44.373Z,3.60
2022-12-08T00:48:12.885Z,3.64
2022-12-08T00:50:41.241Z,3.61
2022-12-08T00:53:10.060Z,3.66
2022-12-08T00:55:39.825Z,3.67
2022-12-08T00:58:08.647Z,3.67
2022-12-08T01:00:37.328Z,3.69
2022-12-08T01:03:05.992Z,3.69
2022-12-08T01:05:34.854Z,3.70
2022-12-08T01:08:03.349Z,3.67
2022-12-08T01:10:32.874Z,3.70
2022-12-08T01:13:03.020Z,3.70
2022-12-08T01:15:31.981Z,3.71
2022-12-08T01:18:00.384Z,3.70
2022-12-08T01:20:29.657Z,3.68
2022-12-08T01:22:58.267Z,3.66
2022-12-08T01:25:27.534Z,3.66
2022-12-08T01:27:56.344Z,3.59
2022-12-08T01:30:26.153Z,3.57
2022-12-08T01:32:55.404Z,3.55
2022-12-08T01:35:24.045Z,3.50
2022-12-08T01:37:53.026Z,3.51
2022-12-08T01:40:21.797Z,3.53
2022-12-08T01:42:50.470Z,3.56
2022-12-08T01:45:24.338Z,3.57
2022-12-08T01:47:58.735Z,3.56
2022-12-08T01:50:28.898Z,3.52
2022-12-08T01:53:01.561Z,3.47
2022-12-08T01:55:34.866Z,3.46
2022-12-08T01:58:12.622Z,3.34
2022-12-08T02:00:41.018Z,3.26
2022-12-08T02:03:15.985Z,3.30
2022-12-08T02:05:45.733Z,3.31
2022-12-08T02:08:15.224Z,3.25
2022-12-08T02:10:45.215Z,3.18
2022-12-08T02:13:17.073Z,3.19
2022-12-08T02:15:57.465Z,3.20
2022-12-08T02:18:40.046Z,3.21
2022-12-08T02:21:14.390Z,3.15
2022-12-08T02:23:52.716Z,3.14
2022-12-08T02:27:06.155Z,3.18
2022-12-08T02:30:07.689Z,3.22
2022-12-08T02:33:13.703Z,3.02
2022-12-08T02:35:50.601Z,3.15
2022-12-08T02:38:29.810Z,3.14
2022-12-08T02:41:06.269Z,3.15
2022-12-08T02:43:42.570Z,3.18
2022-12-08T02:46:15.768Z,3.18
2022-12-08T02:48:45.253Z,3.15
2022-12-08T02:51:15.056Z,3.20
2022-12-08T02:53:45.766Z,3.19
2022-12-08T02:56:29.348Z,3.22
2022-12-08T02:59:14.638Z,3.18
2022-12-08T03:01:55.175Z,3.24
2022-12-08T03:04:32.211Z,3.23
2022-12-08T03:07:08.583Z,3.23
2022-12-08T03:09:41.156Z,3.25
2022-12-08T03:12:18.198Z,3.27
2022-12-08T03:14:51.823Z,3.15
2022-12-08T03:17:23.560Z,3.10
2022-12-08T03:19:55.502Z,3.12
2022-12-08T03:22:28.634Z,3.07
2022-12-08T03:24:58.365Z,3.07
2022-12-08T03:27:30.053Z,3.08
2022-12-08T03:30:01.082Z,3.06
2022-12-08T03:32:35.528Z,3.03
2022-12-08T03:35:06.951Z,3.06
2022-12-08T03:37:39.485Z,3.05
2022-12-08T03:40:11.053Z,3.08
2022-12-08T03:42:39.854Z,3.12
2022-12-08T03:45:09.211Z,3.13
2022-12-08T03:47:38.413Z,3.08
2022-12-08T03:50:09.175Z,3.15
2022-12-08T03:52:38.980Z,3.16
2022-12-08T03:55:09.251Z,3.17
2022-12-08T03:57:37.660Z,3.13
2022-12-08T04:00:09.000Z,3.17
2022-12-08T04:02:37.788Z,3.17
2022-12-08T04:05:06.675Z,3.15
2022-12-08T04:07:36.024Z,3.14
2022-12-08T04:10:07.124Z,3.15
2022-12-08T04:12:36.338Z,3.16
2022-12-08T04:15:05.817Z,3.18
2022-12-08T04:17:34.215Z,3.18
2022-12-08T04:20:04.386Z,3.18
2022-12-08T04:22:33.562Z,3.17
2022-12-08T04:25:02.100Z,3.20
2022-12-08T04:27:32.782Z,3.18
2022-12-08T04:30:01.522Z,3.14
2022-12-08T04:32:30.858Z,3.17
2022-12-08T04:34:59.663Z,3.15
2022-12-08T04:37:29.518Z,3.16
2022-12-08T04:39:58.638Z,3.16
2022-12-08T04:42:27.011Z,3.16
2022-12-08T04:44:57.465Z,3.16
2022-12-08T04:47:26.404Z,3.18
2022-12-08T04:49:55.131Z,3.19
2022-12-08T04:52:23.863Z,3.18
2022-12-08T04:54:53.606Z,3.19
2022-12-08T04:57:22.459Z,3.21
2022-12-08T04:59:50.963Z,3.21
2022-12-08T05:02:21.199Z,3.22
2022-12-08T05:04:49.656Z,3.19
2022-12-08T05:07:18.918Z,3.16
2022-12-08T05:09:47.387Z,3.14
2022-12-08T05:12:16.697Z,3.15
2022-12-08T05:14:45.107Z,3.09
2022-12-08T05:17:14.003Z,3.09
2022-12-08T05:19:43.818Z,3.04
2022-12-08T05:22:12.613Z,3.10
2022-12-08T05:24:47.242Z,3.08
2022-12-08T05:27:17.264Z,2.92
2022-12-08T05:29:45.824Z,2.92
2022-12-08T05:32:15.080Z,2.80
2022-12-08T05:34:45.016Z,2.84
2022-12-08T05:37:14.302Z,2.89
2022-12-08T05:39:42.685Z,2.93
2022-12-08T05:42:11.510Z,2.93
2022-12-08T05:44:40.498Z,2.86
2022-12-08T05:47:09.342Z,2.91
2022-12-08T05:49:37.828Z,2.87
2022-12-08T05:52:08.864Z,2.86
2022-12-08T05:54:37.810Z,2.89
2022-12-08T05:57:06.574Z,2.91
2022-12-08T05:59:34.968Z,2.90
2022-12-08T06:02:03.697Z,2.91
2022-12-08T06:04:32.340Z,2.87
2022-12-08T06:07:01.378Z,2.86
2022-12-08T06:09:31.165Z,2.87
2022-12-08T06:11:59.638Z,2.83
2022-12-08T06:14:28.046Z,2.78
2022-12-08T06:16:56.960Z,2.86
2022-12-08T06:19:25.421Z,2.87
2022-12-08T06:21:54.873Z,2.87
2022-12-08T06:24:23.758Z,2.89
2022-12-08T06:26:53.524Z,2.86
2022-12-08T06:29:22.372Z,2.83
2022-12-08T06:31:52.803Z,2.79
2022-12-08T06:34:21.661Z,2.75
2022-12-08T06:36:50.043Z,2.80
2022-12-08T06:39:19.604Z,2.78
2022-12-08T06:42:05.528Z,2.80
2022-12-08T06:44:35.311Z,2.85
2022-12-08T06:47:04.025Z,2.90
2022-12-08T06:49:32.434Z,2.87
2022-12-08T06:52:01.662Z,2.85
2022-12-08T06:54:30.340Z,2.84
2022-12-08T06:56:59.246Z,2.87
2022-12-08T06:59:27.624Z,2.87
2022-12-08T07:01:58.257Z,2.81
2022-12-08T07:04:26.732Z,2.81
2022-12-08T07:06:55.610Z,2.79
2022-12-08T07:09:24.071Z,2.76
2022-12-08T07:11:52.971Z,2.75
2022-12-08T07:14:24.803Z,2.80
2022-12-08T07:16:53.945Z,2.74
2022-12-08T07:19:23.763Z,2.89
2022-12-08T07:21:52.621Z,2.93
2022-12-08T07:24:21.555Z,2.90
2022-12-08T07:26:50.051Z,2.93
2022-12-08T07:29:24.605Z,2.93
2022-12-08T07:31:54.534Z,2.96
2022-12-08T07:34:25.185Z,3.01
2022-12-08T07:36:53.592Z,3.07
2022-12-08T07:39:22.035Z,3.10
2022-12-08T07:41:50.593Z,2.90
2022-12-08T07:44:19.434Z,3.12
2022-12-08T07:46:47.898Z,3.12
2022-12-08T07:49:16.774Z,3.06
2022-12-08T07:51:46.570Z,3.19
2022-12-08T07:54:15.479Z,3.23
2022-12-08T07:56:44.305Z,3.23
2022-12-08T07:59:12.695Z,3.27
2022-12-08T08:01:45.281Z,3.29
2022-12-08T08:04:14.324Z,3.30
2022-12-08T08:06:42.692Z,3.32
2022-12-08T08:09:13.380Z,3.33
2022-12-08T08:11:42.252Z,3.32
2022-12-08T08:14:10.673Z,3.37
2022-12-08T08:16:42.025Z,3.37
2022-12-08T08:19:10.545Z,3.34
2022-12-08T08:21:46.685Z,3.30
2022-12-08T08:24:17.578Z,3.34
2022-12-08T08:26:46.694Z,3.38
2022-12-08T08:29:15.647Z,3.38
2022-12-08T08:31:44.121Z,3.42
2022-12-08T08:34:13.077Z,3.55
2022-12-08T08:36:41.724Z,3.60
2022-12-08T08:39:10.154Z,3.64
2022-12-08T08:41:40.674Z,3.68
2022-12-08T08:44:09.078Z,3.71
2022-12-08T08:46:38.373Z,3.66
2022-12-08T08:49:06.871Z,3.68
2022-12-08T08:51:35.737Z,3.72
2022-12-08T08:54:04.614Z,3.73
2022-12-08T08:56:33.527Z,3.73
2022-12-08T08:59:04.098Z,3.80
2022-12-08T09:01:32.824Z,3.80
2022-12-08T09:04:02.196Z,3.74
2022-12-08T09:06:31.115Z,3.81
2022-12-08T09:08:59.795Z,3.80
2022-12-08T09:11:28.405Z,3.85
2022-12-08T09:13:57.364Z,3.92
2022-12-08T09:16:27.235Z,3.99
2022-12-08T09:18:55.881Z,4.01
2022-12-08T09:21:27.353Z,3.98
2022-12-08T09:23:57.457Z,4.08
2022-12-08T09:26:27.944Z,4.11
2022-12-08T09:28:58.005Z,4.14
2022-12-08T09:31:27.869Z,4.19
2022-12-08T09:33:57.419Z,4.22
2022-12-08T09:36:25.898Z,4.21
2022-12-08T09:38:55.097Z,4.22
2022-12-08T09:41:38.906Z,4.28
2022-12-08T09:44:32.581Z,4.32
2022-12-08T09:47:05.142Z,4.27
2022-12-08T09:49:40.923Z,4.29
2022-12-08T09:52:20.804Z,4.31
2022-12-08T09:54:49.466Z,4.36
2022-12-08T09:57:22.160Z,4.38
2022-12-08T09:59:54.846Z,4.29
2022-12-08T10:02:26.024Z,4.46
2022-12-08T10:04:57.489Z,4.58
2022-12-08T10:07:35.245Z,4.67
2022-12-08T10:10:13.938Z,4.57
2022-12-08T10:12:47.483Z,4.51
2022-12-08T10:15:34.942Z,4.51
2022-12-08T10:18:13.117Z,4.42
2022-12-08T10:20:43.855Z,4.43
2022-12-08T10:23:23.602Z,4.49
2022-12-08T10:25:54.530Z,4.60
2022-12-08T10:28:23.323Z,4.66
2022-12-08T10:30:51.742Z,4.74
2022-12-08T10:33:23.796Z,4.82
2022-12-08T10:35:54.948Z,4.79
2022-12-08T10:38:27.380Z,4.85
2022-12-08T10:41:02.158Z,4.90
2022-12-08T10:43:30.703Z,4.93
2022-12-08T10:46:09.726Z,4.94
2022-12-08T10:48:49.583Z,5.04
2022-12-08T10:51:28.087Z,5.07
2022-12-08T10:53:57.407Z,5.12
2022-12-08T10:56:29.011Z,5.07
2022-12-08T10:59:17.651Z,5.00
2022-12-08T11:01:48.545Z,5.02
2022-12-08T11:04:21.029Z,5.03
2022-12-08T11:06:51.199Z,5.06
2022-12-08T11:09:27.243Z,5.16
2022-12-08T11:11:59.243Z,5.17
2022-12-08T11:14:30.320Z,5.16
2022-12-08T11:17:07.341Z,5.12
2022-12-08T11:19:40.999Z,5.11
2022-12-08T11:22:22.995Z,5.10
2022-12-08T11:24:58.506Z,5.13
2022-12-08T11:27:28.206Z,5.20
2022-12-08T11:29:57.137Z,5.19
2022-12-08T11:32:25.572Z,5.17
2022-12-08T11:35:01.584Z,5.08
2022-12-08T11:37:35.233Z,4.99
2022-12-08T11:40:09.544Z,5.06
2022-12-08T11:42:51.756Z,5.15
2022-12-08T11:45:26.783Z,5.10
2022-12-08T11:48:05.697Z,5.05
2022-12-08T11:50:43.495Z,4.97
2022-12-08T11:53:19.845Z,5.05
2022-12-08T11:55:53.925Z,5.07
2022-12-08T11:58:25.604Z,5.12
2022-12-08T12:00:54.760Z,5.13
2022-12-08T12:03:30.534Z,5.20
2022-12-08T12:06:38.072Z,5.33
2022-12-08T12:09:14.790Z,5.37
2022-12-08T12:12:11.649Z,5.39
2022-12-08T12:15:29.155Z,5.39
2022-12-08T12:18:02.892Z,5.42
2022-12-08T12:20:36.010Z,5.47
2022-12-08T12:23:14.272Z,5.53
2022-12-08T12:25:51.197Z,5.59
2022-12-08T12:28:20.596Z,5.59
2022-12-08T12:30:59.251Z,5.57
2022-12-08T12:33:28.684Z,5.57
2022-12-08T12:35:58.487Z,5.63
2022-12-08T12:38:52.308Z,5.58
2022-12-08T12:41:25.694Z,5.53
2022-12-08T12:44:11.380Z,5.68
2022-12-08T12:46:54.903Z,5.73
2022-12-08T12:50:07.181Z,5.77
2022-12-08T12:52:47.101Z,5.80
2022-12-08T12:55:52.578Z,5.79
2022-12-08T12:58:38.482Z,5.73
2022-12-08T13:01:54.086Z,5.53
2022-12-08T13:04:35.729Z,5.42
2022-12-08T13:07:04.835Z,5.49
2022-12-08T13:09:37.982Z,5.54
2022-12-08T13:12:14.297Z,5.57
2022-12-08T13:14:48.416Z,5.53
2022-12-08T13:17:25.157Z,5.65
2022-12-08T13:19:57.761Z,5.63
2022-12-08T13:22:51.066Z,5.38
2022-12-08T13:25:58.903Z,5.41
2022-12-08T13:28:31.223Z,5.46
2022-12-08T13:31:00.860Z,5.52
2022-12-08T13:33:33.088Z,5.56
2022-12-08T13:36:16.037Z,5.56
2022-12-08T13:38:47.687Z,5.56
2022-12-08T13:41:21.599Z,5.60
2022-12-08T13:44:50.272Z,5.61
2022-12-08T13:47:32.834Z,5.57
2022-12-08T13:54:16.408Z,5.57
2022-12-08T13:58:20.879Z,5.63
2022-12-08T14:01:06.454Z,5.65
2022-12-08T14:03:48.565Z,5.65
2022-12-08T14:06:31.380Z,5.64
2022-12-08T14:09:10.250Z,5.63
2022-12-08T14:11:42.269Z,5.62
2022-12-08T14:14:32.672Z,5.63
2022-12-08T14:17:12.363Z,5.62
2022-12-08T14:19:45.227Z,5.61
2022-12-08T14:22:16.478Z,5.60
2022-12-08T14:24:46.796Z,5.58
2022-12-08T14:27:18.348Z,5.56
2022-12-08T14:29:49.616Z,5.55
2022-12-08T14:32:25.745Z,5.56
2022-12-08T14:34:56.529Z,5.61
2022-12-08T14:37:27.220Z,5.53
2022-12-08T14:40:02.230Z,5.44
2022-12-08T14:42:31.218Z,5.40
2022-12-08T14:45:04.226Z,5.39
2022-12-08T14:47:35.381Z,5.40
2022-12-08T14:50:06.187Z,5.40
2022-12-08T14:52:34.850Z,5.39
2022-12-08T14:55:03.323Z,5.38
2022-12-08T14:57:36.569Z,5.35
2022-12-08T15:00:11.154Z,5.24
2022-12-08T15:02:47.129Z,5.30
2022-12-08T15:05:18.887Z,5.29
2022-12-08T15:07:50.359Z,5.24
2022-12-08T15:10:29.554Z,5.21
2022-12-08T15:13:01.048Z,5.13
2022-12-08T15:15:30.917Z,5.12
2022-12-08T15:18:04.082Z,5.16
2022-12-08T15:20:42.210Z,5.16
2022-12-08T15:23:22.755Z,5.15
2022-12-08T15:25:51.723Z,5.13
2022-12-08T15:28:28.091Z,5.11
2022-12-08T15:31:00.361Z,5.03
2022-12-08T15:33:30.196Z,5.13
2022-12-08T15:35:58.655Z,5.11
2022-12-08T15:38:29.395Z,5.12
2022-12-08T15:40:59.093Z,5.05
2022-12-08T15:43:28.191Z,5.04
2022-12-08T15:45:59.889Z,4.96
2022-12-08T15:48:31.702Z,4.92
2022-12-08T15:51:02.440Z,4.89
2022-12-08T15:53:31.872Z,4.88
2022-12-08T15:56:26.889Z,4.88
2022-12-08T15:58:54.031Z,4.88
2022-12-08T16:01:23.498Z,4.87
2022-12-08T16:07:19.849Z,4.84
2022-12-08T16:09:34.840Z,4.84
2022-12-08T16:12:21.072Z,4.83
2022-12-08T16:17:38.871Z,4.74
2022-12-08T16:20:13.923Z,4.76
2022-12-08T16:23:13.091Z,4.77
2022-12-08T16:25:52.661Z,4.70
2022-12-08T16:28:52.812Z,4.74
2022-12-08T16:31:16.675Z,4.66
2022-12-08T16:33:47.191Z,4.69
2022-12-08T16:36:17.340Z,4.64
2022-12-08T16:38:46.612Z,4.61
2022-12-08T16:41:45.149Z,4.55
2022-12-08T16:44:13.606Z,4.52
2022-12-08T16:46:42.055Z,4.38
2022-12-08T16:49:10.861Z,4.43
2022-12-08T16:51:43.908Z,4.43
2022-12-08T16:54:12.621Z,4.20
2022-12-08T16:56:41.284Z,4.36
2022-12-08T16:59:10.022Z,4.34
2022-12-08T17:01:38.593Z,4.30
2022-12-08T17:06:59.691Z,4.08
2022-12-08T17:09:28.552Z,4.06
2022-12-08T17:12:03.280Z,4.05
2022-12-08T17:14:34.282Z,4.01
2022-12-08T17:17:03.364Z,4.02
2022-12-08T17:19:31.877Z,4.01
2022-12-08T17:22:02.219Z,3.98
2022-12-08T17:24:30.926Z,3.93
2022-12-08T17:27:03.985Z,3.93
2022-12-08T17:29:33.031Z,3.93
2022-12-08T17:32:01.898Z,3.93
2022-12-08T17:34:30.456Z,3.95
2022-12-08T17:36:59.423Z,3.98
2022-12-08T17:39:29.483Z,3.99
2022-12-08T17:41:57.913Z,3.95
2022-12-08T17:44:28.094Z,4.01
2022-12-08T17:46:56.508Z,3.99
2022-12-08T17:49:26.454Z,3.94
2022-12-08T17:51:56.712Z,3.87
2022-12-08T17:54:26.361Z,3.86
2022-12-08T17:56:58.447Z,3.83
2022-12-08T17:59:28.813Z,3.75
2022-12-08T18:01:58.739Z,3.76
2022-12-08T18:04:28.780Z,3.68
2022-12-08T18:06:59.842Z,3.64
2022-12-08T18:09:31.421Z,3.62
2022-12-08T18:12:01.873Z,3.62
2022-12-08T18:14:30.326Z,3.58
2022-12-08T18:16:58.879Z,3.58
2022-12-08T18:19:27.917Z,3.50
2022-12-08T18:21:56.791Z,3.45
2022-12-08T18:24:25.372Z,3.37
2022-12-08T18:26:55.172Z,3.36
2022-12-08T18:29:26.159Z,3.42
2022-12-08T18:31:54.669Z,3.45
2022-12-08T18:34:23.596Z,3.48
2022-12-08T18:36:52.625Z,3.48
2022-12-08T18:39:23.731Z,3.49
2022-12-08T18:41:53.697Z,3.32
2022-12-08T18:44:22.157Z,3.20
2022-12-08T18:46:52.535Z,3.13
2022-12-08T18:49:21.089Z,3.18
2022-12-08T18:51:50.531Z,3.19
2022-12-08T18:54:22.084Z,3.21
2022-12-08T18:56:56.707Z,3.18
2022-12-08T18:59:25.728Z,3.17
2022-12-08T19:01:56.729Z,3.18
2022-12-08T19:04:29.215Z,3.15
2022-12-08T19:06:58.966Z,3.17
2022-12-08T19:09:28.935Z,3.21
2022-12-08T19:11:58.855Z,3.21
2022-12-08T19:14:28.691Z,3.17
2022-12-08T19:16:59.029Z,3.21
2022-12-08T19:19:28.498Z,3.23
2022-12-08T19:21:57.293Z,3.30
2022-12-08T19:24:26.641Z,3.33
2022-12-08T19:26:55.145Z,3.34
2022-12-08T19:29:24.286Z,3.34
2022-12-08T19:31:52.674Z,3.35
2022-12-08T19:34:23.395Z,3.36
2022-12-08T19:36:51.864Z,3.39
2022-12-08T19:39:40.557Z,3.40
2022-12-08T19:42:33.395Z,3.31
2022-12-08T19:45:05.724Z,3.37
2022-12-08T19:47:34.435Z,3.37
2022-12-08T19:50:24.348Z,3.36
2022-12-08T19:52:53.357Z,3.28
2022-12-08T19:55:23.869Z,3.23
2022-12-08T19:57:52.712Z,3.25
2022-12-08T20:00:23.244Z,3.22
2022-12-08T20:02:51.941Z,3.22
2022-12-08T20:05:22.810Z,3.20
2022-12-08T20:07:51.699Z,3.20
2022-12-08T20:10:25.434Z,3.21
2022-12-08T20:13:13.998Z,3.23
2022-12-08T20:15:43.883Z,3.22
2022-12-08T20:18:13.226Z,3.29
2022-12-08T20:20:44.996Z,3.30
2022-12-08T20:23:14.622Z,3.34
2022-12-08T20:25:46.023Z,3.31
2022-12-08T20:28:15.166Z,3.29
2022-12-08T20:30:46.801Z,3.26
2022-12-08T20:33:17.001Z,3.22
2022-12-08T20:35:49.079Z,3.23
2022-12-08T20:38:18.748Z,3.21
2022-12-08T20:40:47.604Z,3.20
2022-12-08T20:43:16.932Z,3.07
2022-12-08T20:45:45.900Z,3.05
2022-12-08T20:48:14.906Z,3.02
2022-12-08T20:50:43.461Z,2.98
2022-12-08T20:53:14.344Z,3.01
2022-12-08T20:55:43.524Z,2.80
2022-12-08T20:58:12.886Z,2.93
2022-12-08T21:00:41.774Z,2.92
2022-12-08T21:03:10.899Z,2.90
2022-12-08T21:05:39.887Z,2.94
2022-12-08T21:08:08.948Z,2.87
2022-12-08T21:10:43.630Z,2.93
2022-12-08T21:13:12.642Z,2.93
2022-12-08T21:15:47.065Z,2.89
2022-12-08T21:18:16.576Z,2.89
2022-12-08T21:20:45.506Z,2.89
2022-12-08T21:23:14.114Z,2.93
2022-12-08T21:25:45.793Z,2.95
2022-12-08T21:28:14.521Z,2.97
2022-12-08T21:30:43.860Z,2.93
2022-12-08T21:33:12.456Z,2.93
2022-12-08T21:35:41.826Z,2.85
2022-12-08T21:38:10.848Z,2.79
2022-12-08T21:40:40.296Z,2.75
2022-12-08T21:43:10.107Z,2.79
2022-12-08T21:45:39.087Z,2.80
2022-12-08T21:48:11.766Z,2.84
2022-12-08T21:50:41.466Z,2.85
2022-12-08T21:53:10.862Z,2.81
2022-12-08T21:55:40.744Z,2.76
2022-12-08T21:58:10.635Z,2.80
2022-12-08T22:00:39.806Z,2.79
2022-12-08T22:03:14.086Z,2.69
2022-12-08T22:05:43.748Z,2.67
2022-12-08T22:08:12.821Z,2.69
2022-12-08T22:10:41.375Z,2.73
2022-12-08T22:13:11.979Z,2.73
2022-12-08T22:15:40.360Z,2.75
2022-12-08T22:18:09.604Z,2.76
2022-12-08T22:20:43.555Z,2.76
2022-12-08T22:23:13.440Z,2.77
2022-12-08T22:25:42.235Z,2.73
2022-12-08T22:28:12.606Z,2.75
2022-12-08T22:30:41.905Z,2.74
2022-12-08T22:33:10.508Z,2.72
2022-12-08T22:35:40.043Z,2.60
2022-12-08T22:38:09.143Z,2.70
2022-12-08T22:40:41.126Z,2.70
2022-12-08T22:43:10.843Z,2.66
2022-12-08T22:45:40.935Z,2.65
2022-12-08T22:48:10.621Z,2.64
2022-12-08T22:50:39.321Z,2.62
2022-12-08T22:53:08.942Z,2.63
2022-12-08T22:55:42.815Z,2.56
2022-12-08T22:58:13.110Z,2.43
2022-12-08T23:00:43.674Z,2.34
2022-12-08T23:03:12.970Z,2.39
2022-12-08T23:05:41.912Z,2.31
2022-12-08T23:08:15.265Z,2.34
2022-12-08T23:10:44.834Z,2.37
2022-12-08T23:13:14.521Z,2.38
2022-12-08T23:15:45.160Z,2.37
2022-12-08T23:18:16.272Z,2.36
2022-12-08T23:20:44.658Z,2.37
2022-12-08T23:23:14.367Z,2.37
2022-12-08T23:25:43.887Z,2.34
2022-12-08T23:28:14.476Z,2.31
2022-12-08T23:30:44.271Z,2.28
2022-12-08T23:33:13.479Z,2.26
2022-12-08T23:35:41.934Z,2.18
2022-12-08T23:38:11.359Z,2.18
2022-12-08T23:40:39.799Z,2.20
2022-12-08T23:43:08.974Z,2.19
2022-12-08T23:45:37.937Z,2.19
2022-12-08T23:48:07.969Z,2.22
2022-12-08T23:50:36.381Z,2.15
2022-12-08T23:53:05.510Z,2.22
2022-12-08T23:55:33.949Z,2.20
2022-12-08T23:58:03.060Z,2.19
